createdAt,value
2022-12-03T00:02:14.535Z,101201.78
2022-12-03T00:04:41.324Z,101205.97
2022-12-03T00:07:07.990Z,101212.72
2022-12-03T00:09:34.804Z,101210.19
2022-12-03T00:12:01.736Z,101202.50
2022-12-03T00:14:28.339Z,101202.00
2022-12-03T00:16:55.025Z,101205.59
2022-12-03T00:19:21.692Z,101212.41
2022-12-03T00:21:49.475Z,101207.16
2022-12-03T00:24:17.811Z,101214.19
2022-12-03T00:26:44.499Z,101203.13
2022-12-03T00:29:11.551Z,101218.13
2022-12-03T00:31:38.255Z,101216.44
2022-12-03T00:34:05.062Z,101216.69
2022-12-03T00:36:31.731Z,101217.53
2022-12-03T00:38:58.396Z,101221.69
2022-12-03T00:41:25.166Z,101230.38
2022-12-03T00:43:51.827Z,101220.25
2022-12-03T00:46:21.573Z,101224.38
2022-12-03T00:48:48.475Z,101229.81
2022-12-03T00:51:15.181Z,101227.19
2022-12-03T00:53:41.874Z,101214.50
2022-12-03T00:56:08.810Z,101220.53
2022-12-03T00:58:35.433Z,101218.00
2022-12-03T01:01:02.098Z,101220.63
2022-12-03T01:03:28.857Z,101218.94
2022-12-03T01:05:55.528Z,101216.31
2022-12-03T01:08:22.269Z,101220.69
2022-12-03T01:10:48.941Z,101220.44
2022-12-03T01:13:15.670Z,101223.06
2022-12-03T01:15:42.390Z,101216.38
2022-12-03T01:18:09.275Z,101222.38
2022-12-03T01:20:36.560Z,101218.06
2022-12-03T01:23:03.294Z,101225.50
2022-12-03T01:25:30.085Z,101224.78
2022-12-03T01:27:56.925Z,101225.72
2022-12-03T01:30:23.593Z,101222.44
2022-12-03T01:32:50.383Z,101220.84
2022-12-03T01:35:17.161Z,101215.41
2022-12-03T01:37:43.874Z,101210.25
2022-12-03T01:40:16.110Z,101217.09
2022-12-03T01:42:43.015Z,101220.94
2022-12-03T01:45:21.448Z,101214.00
2022-12-03T01:47:48.442Z,101223.47
2022-12-03T01:50:27.355Z,101225.31
2022-12-03T01:52:56.756Z,101237.50
2022-12-03T01:55:25.187Z,101226.19
2022-12-03T01:57:55.691Z,101231.44
2022-12-03T02:00:24.588Z,101231.59
2022-12-03T02:03:01.141Z,101222.69
2022-12-03T02:05:30.077Z,101214.25
2022-12-03T02:07:57.954Z,101218.47
2022-12-03T02:10:32.673Z,101206.94
2022-12-03T02:13:03.166Z,101217.44
2022-12-03T02:15:29.925Z,101216.78
2022-12-03T02:17:57.767Z,101216.44
2022-12-03T02:20:24.699Z,101215.41
2022-12-03T02:23:04.486Z,101228.72
2022-12-03T02:25:34.727Z,101218.31
2022-12-03T02:28:03.134Z,101226.84
2022-12-03T02:30:31.538Z,101224.47
2022-12-03T02:32:59.268Z,101221.78
2022-12-03T02:35:33.576Z,101214.81
2022-12-03T02:38:08.248Z,101218.47
2022-12-03T02:40:35.256Z,101215.19
2022-12-03T02:43:03.489Z,101213.78
2022-12-03T02:45:34.397Z,101220.03
2022-12-03T02:48:06.266Z,101226.78
2022-12-03T02:50:35.992Z,101226.63
2022-12-03T02:53:06.835Z,101229.16
2022-12-03T02:55:37.061Z,101230.84
2022-12-03T02:58:05.207Z,101229.91
2022-12-03T03:00:33.076Z,101237.78
2022-12-03T03:03:01.355Z,101235.06
2022-12-03T03:05:28.462Z,101231.78
2022-12-03T03:07:58.303Z,101231.59
2022-12-03T03:10:26.406Z,101222.69
2022-12-03T03:12:55.118Z,101228.31
2022-12-03T03:15:24.690Z,101226.63
2022-12-03T03:17:52.181Z,101228.03
2022-12-03T03:20:19.331Z,101216.69
2022-12-03T03:22:46.364Z,101226.09
2022-12-03T03:25:17.314Z,101214.91
2022-12-03T03:27:45.052Z,101235.72
2022-12-03T03:30:12.515Z,101237.88
2022-12-03T03:32:40.423Z,101235.91
2022-12-03T03:35:08.668Z,101232.84
2022-12-03T03:37:35.569Z,101236.41
2022-12-03T03:40:02.540Z,101240.81
2022-12-03T03:42:29.350Z,101232.84
2022-12-03T03:44:56.331Z,101244.28
2022-12-03T03:47:23.922Z,101235.56
2022-12-03T03:49:50.956Z,101232.16
2022-12-03T03:52:19.234Z,101237.50
2022-12-03T03:54:46.139Z,101238.75
2022-12-03T03:57:12.982Z,101231.84
2022-12-03T03:59:39.695Z,101236.41
2022-12-03T04:02:06.998Z,101231.91
2022-12-03T04:04:36.764Z,101226.66
2022-12-03T04:07:03.539Z,101218.03
2022-12-03T04:09:30.170Z,101228.53
2022-12-03T04:12:15.726Z,101238.34
2022-12-03T04:14:42.469Z,101243.69
2022-12-03T04:17:09.086Z,101236.03
2022-12-03T04:19:35.826Z,101227.50
2022-12-03T04:22:21.107Z,101246.06
2022-12-03T04:24:48.447Z,101239.31
2022-12-03T04:27:33.912Z,101233.09
2022-12-03T04:30:00.721Z,101238.84
2022-12-03T04:33:02.647Z,101235.28
2022-12-03T04:35:44.512Z,101237.16
2022-12-03T04:38:12.947Z,101234.38
2022-12-03T04:40:58.553Z,101229.13
2022-12-03T04:43:25.495Z,101223.78
2022-12-03T04:45:52.187Z,101214.94
2022-12-03T04:48:18.940Z,101219.53
2022-12-03T04:50:45.619Z,101221.41
2022-12-03T04:53:12.434Z,101217.09
2022-12-03T04:55:39.134Z,101214.47
2022-12-03T04:58:06.174Z,101210.25
2022-12-03T05:00:32.848Z,101205.28
2022-12-03T05:02:59.548Z,101205.59
2022-12-03T05:05:26.367Z,101196.09
2022-12-03T05:07:53.061Z,101203.88
2022-12-03T05:10:19.749Z,101207.63
2022-12-03T05:12:46.385Z,101215.59
2022-12-03T05:15:13.031Z,101220.84
2022-12-03T05:17:39.726Z,101216.69
2022-12-03T05:20:25.519Z,101218.41
2022-12-03T05:22:52.219Z,101213.06
2022-12-03T05:25:18.887Z,101222.69
2022-12-03T05:27:45.639Z,101224.56
2022-12-03T05:30:12.630Z,101221.78
2022-12-03T05:32:39.418Z,101222.97
2022-12-03T05:35:08.215Z,101224.47
2022-12-03T05:37:34.881Z,101227.84
2022-12-03T05:40:01.733Z,101223.28
2022-12-03T05:42:46.703Z,101224.13
2022-12-03T05:45:13.413Z,101217.84
2022-12-03T05:47:40.045Z,101218.53
2022-12-03T05:50:07.553Z,101216.25
2022-12-03T05:52:34.258Z,101224.88
2022-12-03T05:55:01.123Z,101215.41
2022-12-03T05:57:28.717Z,101210.16
2022-12-03T05:59:55.342Z,101212.88
2022-12-03T06:02:22.275Z,101212.78
2022-12-03T06:04:49.237Z,101215.50
2022-12-03T06:07:15.892Z,101219.72
2022-12-03T06:09:42.668Z,101220.75
2022-12-03T06:12:09.282Z,101224.13
2022-12-03T06:14:35.982Z,101228.34
2022-12-03T06:17:02.968Z,101218.78
2022-12-03T06:19:29.650Z,101225.72
2022-12-03T06:21:56.338Z,101233.50
2022-12-03T06:24:23.015Z,101245.59
2022-12-03T06:26:49.648Z,101256.09
2022-12-03T06:29:16.295Z,101240.34
2022-12-03T06:31:43.013Z,101244.69
2022-12-03T06:34:09.778Z,101245.50
2022-12-03T06:36:36.549Z,101242.97
2022-12-03T06:39:03.603Z,101240.25
2022-12-03T06:41:30.299Z,101245.50
2022-12-03T06:43:56.939Z,101228.06
2022-12-03T06:46:24.023Z,101240.16
2022-12-03T06:48:53.119Z,101241.97
2022-12-03T06:51:19.799Z,101232.28
2022-12-03T06:53:46.523Z,101230.63
2022-12-03T06:56:13.193Z,101231.97
2022-12-03T06:58:39.876Z,101232.78
2022-12-03T07:01:06.695Z,101230.25
2022-12-03T07:03:33.366Z,101234.41
2022-12-03T07:06:00.099Z,101231.00
2022-12-03T07:08:27.380Z,101240.66
2022-12-03T07:10:54.735Z,101238.97
2022-12-03T07:13:22.061Z,101245.81
2022-12-03T07:15:48.769Z,101251.47
2022-12-03T07:18:15.395Z,101250.53
2022-12-03T07:20:42.124Z,101242.00
2022-12-03T07:23:08.808Z,101243.00
2022-12-03T07:25:35.468Z,101236.75
2022-12-03T07:28:02.081Z,101237.59
2022-12-03T07:30:29.132Z,101233.19
2022-12-03T07:32:56.929Z,101236.66
2022-12-03T07:35:23.523Z,101234.69
2022-12-03T07:37:50.182Z,101237.81
2022-12-03T07:40:16.953Z,101244.91
2022-12-03T07:42:43.656Z,101231.03
2022-12-03T07:45:10.607Z,101231.03
2022-12-03T07:47:37.340Z,101241.28
2022-12-03T07:50:04.167Z,101232.38
2022-12-03T07:52:30.807Z,101234.16
2022-12-03T07:54:57.483Z,101240.44
2022-12-03T07:57:24.156Z,101244.47
2022-12-03T07:59:50.862Z,101245.97
2022-12-03T08:02:21.150Z,101245.41
2022-12-03T08:04:48.600Z,101243.69
2022-12-03T08:07:15.247Z,101249.16
2022-12-03T08:09:42.736Z,101248.88
2022-12-03T08:12:17.215Z,101254.22
2022-12-03T08:14:44.635Z,101248.41
2022-12-03T08:17:13.166Z,101243.81
2022-12-03T08:19:45.251Z,101243.25
2022-12-03T08:22:14.358Z,101251.59
2022-12-03T08:24:41.456Z,101242.78
2022-12-03T08:27:18.276Z,101238.94
2022-12-03T08:29:46.152Z,101249.53
2022-12-03T08:32:13.384Z,101256.59
2022-12-03T08:34:44.218Z,101259.31
2022-12-03T08:37:19.097Z,101256.59
2022-12-03T08:39:50.809Z,101248.72
2022-12-03T08:42:41.791Z,101247.00
2022-12-03T08:45:32.700Z,101257.50
2022-12-03T08:48:08.789Z,101254.41
2022-12-03T08:50:42.797Z,101262.09
2022-12-03T08:53:26.083Z,101266.59
2022-12-03T08:55:54.549Z,101269.03
2022-12-03T08:58:33.175Z,101262.66
2022-12-03T09:01:12.350Z,101253.19
2022-12-03T09:03:47.496Z,101264.56
2022-12-03T09:06:14.351Z,101259.31
2022-12-03T09:08:40.977Z,101258.44
2022-12-03T09:11:07.738Z,101255.81
2022-12-03T09:13:34.447Z,101261.06
2022-12-03T09:16:01.188Z,101251.34
2022-12-03T09:18:27.787Z,101249.44
2022-12-03T09:20:54.427Z,101248.50
2022-12-03T09:23:21.056Z,101251.13
2022-12-03T09:25:47.764Z,101250.03
2022-12-03T09:28:14.413Z,101232.75
2022-12-03T09:30:41.131Z,101234.34
2022-12-03T09:33:07.784Z,101234.25
2022-12-03T09:35:34.449Z,101238.50
2022-12-03T09:38:01.157Z,101226.00
2022-12-03T09:40:29.179Z,101227.41
2022-12-03T09:42:58.675Z,101208.00
2022-12-03T09:45:25.668Z,101208.56
2022-12-03T09:47:52.645Z,101205.75
2022-12-03T09:50:23.159Z,101200.59
2022-12-03T09:52:51.335Z,101199.84
2022-12-03T09:55:22.465Z,101198.78
2022-12-03T09:57:49.249Z,101195.03
2022-12-03T10:00:19.256Z,101193.16
2022-12-03T10:02:47.039Z,101194.09
2022-12-03T10:05:14.885Z,101187.91
2022-12-03T10:07:42.474Z,101187.44
2022-12-03T10:10:16.752Z,101189.59
2022-12-03T10:12:43.905Z,101187.63
2022-12-03T10:15:16.597Z,101182.28
2022-12-03T10:17:44.359Z,101187.06
2022-12-03T10:20:14.215Z,101185.50
2022-12-03T10:22:41.125Z,101185.50
2022-12-03T10:25:17.723Z,101178.13
2022-12-03T10:28:06.400Z,101191.28
2022-12-03T10:30:33.204Z,101188.44
2022-12-03T10:33:17.324Z,101173.84
2022-12-03T10:35:45.619Z,101178.13
2022-12-03T10:38:18.389Z,101191.00
2022-12-03T10:40:46.112Z,101185.66
2022-12-03T10:43:24.444Z,101181.13
2022-12-03T10:46:11.078Z,101180.09
2022-12-03T10:48:38.435Z,101175.50
2022-12-03T10:51:09.093Z,101164.44
2022-12-03T10:53:38.974Z,101175.31
2022-12-03T10:56:07.591Z,101177.94
2022-12-03T10:58:36.703Z,101174.28
2022-12-03T11:01:10.773Z,101162.06
2022-12-03T11:03:37.673Z,101177.06
2022-12-03T11:06:04.580Z,101164.28
2022-12-03T11:08:35.746Z,101152.84
2022-12-03T11:11:02.290Z,101154.22
2022-12-03T11:13:34.832Z,101148.03
2022-12-03T11:16:03.501Z,101154.03
2022-12-03T11:18:36.192Z,101156.56
2022-12-03T11:21:07.245Z,101147.53
2022-12-03T11:23:46.269Z,101151.13
2022-12-03T11:26:28.911Z,101148.59
2022-12-03T11:28:57.444Z,101139.47
2022-12-03T11:31:48.043Z,101135.41
2022-12-03T11:34:21.246Z,101141.59
2022-12-03T11:37:09.628Z,101141.28
2022-12-03T11:39:45.458Z,101137.81
2022-12-03T11:42:28.580Z,101135.09
2022-12-03T11:45:04.837Z,101128.69
2022-12-03T11:47:33.938Z,101129.63
2022-12-03T11:50:01.150Z,101136.19
2022-12-03T11:52:40.082Z,101129.84
2022-12-03T11:55:37.385Z,101131.66
2022-12-03T11:58:16.498Z,101128.09
2022-12-03T12:00:55.007Z,101136.09
2022-12-03T12:03:28.024Z,101140.00
2022-12-03T12:06:08.021Z,101132.41
2022-12-03T12:08:36.858Z,101123.03
2022-12-03T12:11:04.292Z,101121.34
2022-12-03T12:13:30.880Z,101117.22
2022-12-03T12:16:50.422Z,101117.13
2022-12-03T12:19:35.604Z,101120.88
2022-12-03T12:22:16.147Z,101121.31
2022-12-03T12:24:50.844Z,101121.47
2022-12-03T12:27:45.029Z,101124.78
2022-12-03T12:30:18.237Z,101105.81
2022-12-03T12:32:52.911Z,101111.31
2022-12-03T12:35:28.183Z,101111.50
2022-12-03T12:38:10.800Z,101107.00
2022-12-03T12:40:40.162Z,101107.75
2022-12-03T12:43:25.188Z,101104.63
2022-12-03T12:45:54.478Z,101105.56
2022-12-03T12:48:31.096Z,101101.13
2022-12-03T12:51:14.596Z,101096.63
2022-12-03T12:53:45.266Z,101099.69
2022-12-03T12:56:21.995Z,101094.72
2022-12-03T12:58:48.866Z,101094.38
2022-12-03T13:01:21.406Z,101077.56
2022-12-03T13:03:52.132Z,101075.88
2022-12-03T13:06:27.075Z,101068.63
2022-12-03T13:08:54.581Z,101069.78
2022-12-03T13:11:42.061Z,101063.69
2022-12-03T13:14:23.733Z,101070.00
2022-12-03T13:16:56.055Z,101068.41
2022-12-03T13:19:28.544Z,101068.31
2022-12-03T13:21:57.787Z,101066.44
2022-12-03T13:24:36.887Z,101081.22
2022-12-03T13:27:18.521Z,101071.84
2022-12-03T13:29:49.269Z,101071.69
2022-12-03T13:32:19.738Z,101070.72
2022-12-03T13:34:47.665Z,101073.75
2022-12-03T13:37:22.363Z,101074.16
2022-12-03T13:39:51.434Z,101073.41
2022-12-03T13:42:38.962Z,101080.38
2022-12-03T13:45:14.940Z,101073.31
2022-12-03T13:47:56.553Z,101071.34
2022-12-03T13:50:45.105Z,101073.97
2022-12-03T13:53:11.749Z,101082.69
2022-12-03T13:55:42.949Z,101067.31
2022-12-03T13:58:09.610Z,101071.34
2022-12-03T14:00:36.479Z,101082.13
2022-12-03T14:03:03.366Z,101080.66
2022-12-03T14:05:30.010Z,101078.34
2022-12-03T14:08:02.129Z,101088.84
2022-12-03T14:10:29.851Z,101087.91
2022-12-03T14:12:57.189Z,101086.97
2022-12-03T14:15:24.931Z,101086.31
2022-12-03T14:17:51.609Z,101092.31
2022-12-03T14:20:19.177Z,101091.69
2022-12-03T14:22:45.916Z,101092.31
2022-12-03T14:25:12.594Z,101099.59
2022-12-03T14:27:39.246Z,101095.72
2022-12-03T14:30:06.657Z,101097.09
2022-12-03T14:32:33.442Z,101089.31
2022-12-03T14:35:01.948Z,101085.75
2022-12-03T14:37:31.882Z,101089.19
2022-12-03T14:39:58.496Z,101090.47
2022-12-03T14:42:25.263Z,101083.25
2022-12-03T14:44:52.342Z,101079.63
2022-12-03T14:47:24.339Z,101079.84
2022-12-03T14:49:52.434Z,101082.78
2022-12-03T14:52:19.589Z,101093.53
2022-12-03T14:54:46.496Z,101107.41
2022-12-03T14:57:15.376Z,101099.72
2022-12-03T14:59:43.657Z,101105.91
2022-12-03T15:02:11.467Z,101112.22
2022-12-03T15:04:39.852Z,101107.59
2022-12-03T15:07:07.056Z,101110.97
2022-12-03T15:09:34.200Z,101099.16
2022-12-03T15:12:03.287Z,101108.53
2022-12-03T15:14:30.019Z,101110.97
2022-12-03T15:16:56.676Z,101107.94
2022-12-03T15:19:23.295Z,101111.50
2022-12-03T15:21:50.011Z,101110.56
2022-12-03T15:24:17.104Z,101104.66
2022-12-03T15:26:43.795Z,101110.78
2022-12-03T15:29:11.771Z,101115.84
2022-12-03T15:31:38.449Z,101105.53
2022-12-03T15:34:05.400Z,101106.25
2022-12-03T15:36:32.047Z,101098.56
2022-12-03T15:38:58.746Z,101100.88
2022-12-03T15:41:29.194Z,101104.47
2022-12-03T15:44:01.623Z,101102.59
2022-12-03T15:46:28.779Z,101097.22
2022-12-03T15:48:55.865Z,101097.31
2022-12-03T15:51:23.927Z,101095.63
2022-12-03T15:53:51.103Z,101096.28
2022-12-03T15:56:17.834Z,101091.97
2022-12-03T15:58:44.552Z,101086.69
2022-12-03T16:01:13.635Z,101085.00
2022-12-03T16:03:41.282Z,101091.13
2022-12-03T16:06:08.004Z,101092.91
2022-12-03T16:08:34.642Z,101086.59
2022-12-03T16:11:01.318Z,101086.59
2022-12-03T16:13:28.002Z,101082.44
2022-12-03T16:15:54.800Z,101085.06
2022-12-03T16:18:21.565Z,101089.44
2022-12-03T16:20:48.354Z,101086.94
2022-12-03T16:23:14.967Z,101092.41
2022-12-03T16:25:41.694Z,101087.47
2022-12-03T16:28:08.440Z,101090.81
2022-12-03T16:30:35.966Z,101096.56
2022-12-03T16:33:02.785Z,101102.78
2022-12-03T16:35:29.492Z,101102.78
2022-12-03T16:37:56.126Z,101097.53
2022-12-03T16:40:22.874Z,101091.50
2022-12-03T16:42:49.568Z,101095.72
2022-12-03T16:45:36.717Z,101098.56
2022-12-03T16:48:03.635Z,101100.44
2022-12-03T16:50:30.637Z,101087.47
2022-12-03T16:52:57.894Z,101097.13
2022-12-03T16:55:24.806Z,101092.06
2022-12-03T16:57:51.475Z,101093.44
2022-12-03T17:00:18.570Z,101091.22
2022-12-03T17:02:45.392Z,101110.69
2022-12-03T17:05:12.109Z,101111.50
2022-12-03T17:07:38.800Z,101110.78
2022-12-03T17:10:06.300Z,101107.41
2022-12-03T17:12:54.133Z,101108.16
2022-12-03T17:15:19.701Z,101104.56
2022-12-03T17:17:46.453Z,101106.38
2022-12-03T17:20:14.776Z,101091.03
2022-12-03T17:22:41.797Z,101090.16
2022-12-03T17:25:09.597Z,101097.00
2022-12-03T17:27:42.056Z,101086.59
2022-12-03T17:30:13.551Z,101104.66
2022-12-03T17:32:40.327Z,101104.66
2022-12-03T17:35:08.005Z,101103.00
2022-12-03T17:37:34.782Z,101104.03
2022-12-03T17:40:01.592Z,101102.13
2022-12-03T17:42:28.224Z,101110.78
2022-12-03T17:44:54.888Z,101107.41
2022-12-03T17:47:24.297Z,101106.25
2022-12-03T17:49:51.019Z,101114.38
2022-12-03T17:52:17.686Z,101114.81
2022-12-03T17:55:09.104Z,101115.84
2022-12-03T17:57:31.067Z,101119.72
2022-12-03T17:59:57.757Z,101118.56
2022-12-03T18:02:24.465Z,101116.47
2022-12-03T18:04:51.075Z,101114.91
2022-12-03T18:07:17.784Z,101115.84
2022-12-03T18:09:44.413Z,101114.03
2022-12-03T18:12:11.191Z,101115.09
2022-12-03T18:14:37.860Z,101119.06
2022-12-03T18:17:04.499Z,101123.06
2022-12-03T18:19:31.195Z,101116.97
2022-12-03T18:21:57.874Z,101115.94
2022-12-03T18:24:25.336Z,101124.66
2022-12-03T18:26:52.022Z,101131.81
2022-12-03T18:29:18.663Z,101128.53
2022-12-03T18:31:45.480Z,101127.88
2022-12-03T18:34:12.254Z,101132.09
2022-12-03T18:36:39.809Z,101130.44
2022-12-03T18:39:09.288Z,101122.78
2022-12-03T18:41:36.599Z,101126.56
2022-12-03T18:44:09.191Z,101119.63
2022-12-03T18:49:22.707Z,101110.13
2022-12-03T18:51:52.100Z,101116.97
2022-12-03T18:54:22.614Z,101119.63
2022-12-03T18:56:49.354Z,101115.28
2022-12-03T18:59:15.965Z,101114.56
2022-12-03T19:01:42.593Z,101111.72
2022-12-03T19:04:10.551Z,101106.47
2022-12-03T19:06:37.190Z,101094.56
2022-12-03T19:09:04.746Z,101105.91
2022-12-03T19:11:31.560Z,101100.03
2022-12-03T19:13:59.119Z,101108.44
2022-12-03T19:16:26.255Z,101097.09
2022-12-03T19:18:53.994Z,101102.25
2022-12-03T19:21:21.353Z,101103.84
2022-12-03T19:24:22.221Z,101115.19
2022-12-03T19:26:35.021Z,101113.53
2022-12-03T19:29:01.752Z,101116.22
2022-12-03T19:31:30.731Z,101116.97
2022-12-03T19:33:57.414Z,101122.34
2022-12-03T19:36:26.889Z,101121.47
2022-12-03T19:38:57.323Z,101130.13
2022-12-03T19:41:30.631Z,101130.13
2022-12-03T19:43:57.715Z,101127.59
2022-12-03T19:46:26.495Z,101136.31
2022-12-03T19:48:54.028Z,101136.22
2022-12-03T19:51:34.283Z,101126.75
2022-12-03T19:54:02.257Z,101130.97
2022-12-03T19:56:30.496Z,101129.94
2022-12-03T19:58:57.803Z,101130.84
2022-12-03T20:01:27.765Z,101127.28
2022-12-03T20:03:55.515Z,101130.84
2022-12-03T20:06:25.035Z,101131.63
2022-12-03T20:08:58.832Z,101135.19
2022-12-03T20:11:28.376Z,101125.44
2022-12-03T20:13:57.861Z,101119.41
2022-12-03T20:16:26.034Z,101119.19
2022-12-03T20:18:56.752Z,101124.47
2022-12-03T20:21:23.828Z,101113.22
2022-12-03T20:23:50.657Z,101128.78
2022-12-03T20:26:19.620Z,101113.94
2022-12-03T20:28:50.074Z,101113.75
2022-12-03T20:31:22.256Z,101118.06
2022-12-03T20:33:51.349Z,101111.97
2022-12-03T20:36:20.872Z,101113.66
2022-12-03T20:38:47.602Z,101122.06
2022-12-03T20:41:17.263Z,101121.34
2022-12-03T20:43:44.386Z,101108.06
2022-12-03T20:46:20.097Z,101110.81
2022-12-03T20:48:47.351Z,101105.56
2022-12-03T20:51:16.992Z,101106.38
2022-12-03T20:53:44.958Z,101107.34
2022-12-03T20:56:18.650Z,101108.28
2022-12-03T20:58:45.395Z,101109.97
2022-12-03T21:01:17.106Z,101118.59
2022-12-03T21:03:45.010Z,101118.72
2022-12-03T21:06:12.873Z,101109.97
2022-12-03T21:08:42.238Z,101116.69
2022-12-03T21:11:18.629Z,101106.28
2022-12-03T21:13:46.359Z,101116.06
2022-12-03T21:16:15.835Z,101108.06
2022-12-03T21:18:43.189Z,101102.00
2022-12-03T21:21:11.874Z,101102.09
2022-12-03T21:23:38.593Z,101089.34
2022-12-03T21:26:16.104Z,101095.38
2022-12-03T21:28:45.151Z,101096.41
2022-12-03T21:31:17.953Z,101090.72
2022-12-03T21:33:44.644Z,101094.44
2022-12-03T21:36:13.219Z,101096.09
2022-12-03T21:38:41.313Z,101097.13
2022-12-03T21:41:08.089Z,101094.72
2022-12-03T21:43:34.859Z,101089.44
2022-12-03T21:47:09.263Z,101083.38
2022-12-03T21:48:53.685Z,101085.88
2022-12-03T21:51:20.341Z,101091.25
2022-12-03T21:53:47.459Z,101085.06
2022-12-03T21:56:19.568Z,101086.81
2022-12-03T21:58:46.644Z,101088.53
2022-12-03T22:01:22.576Z,101085.88
2022-12-03T22:03:49.971Z,101087.59
2022-12-03T22:06:17.376Z,101086.81
2022-12-03T22:08:44.210Z,101094.59
2022-12-03T22:11:17.122Z,101092.09
2022-12-03T22:13:44.015Z,101088.53
2022-12-03T22:16:13.307Z,101087.69
2022-12-03T22:18:40.394Z,101078.00
2022-12-03T22:21:09.739Z,101077.06
2022-12-03T22:23:36.904Z,101078.81
2022-12-03T22:26:13.822Z,101068.19
2022-12-03T22:28:48.848Z,101067.47
2022-12-03T22:31:17.179Z,101078.72
2022-12-03T22:33:48.027Z,101068.00
2022-12-03T22:36:20.562Z,101061.28
2022-12-03T22:38:49.756Z,101059.47
2022-12-03T22:41:16.783Z,101053.59
2022-12-03T22:43:44.640Z,101051.06
2022-12-03T22:46:14.301Z,101043.19
2022-12-03T22:48:42.438Z,101053.88
2022-12-03T22:51:22.230Z,101053.16
2022-12-03T22:53:54.355Z,101056.53
2022-12-03T22:56:22.386Z,101058.44
2022-12-03T22:58:49.287Z,101067.16
2022-12-03T23:01:26.009Z,101066.22
2022-12-03T23:03:52.875Z,101058.31
2022-12-03T23:06:20.627Z,101054.09
2022-12-03T23:08:47.766Z,101059.38
2022-12-03T23:11:14.800Z,101051.38
2022-12-03T23:13:41.458Z,101058.22
2022-12-03T23:16:13.589Z,101055.59
2022-12-03T23:18:40.467Z,101054.00
2022-12-03T23:21:07.727Z,101052.84
2022-12-03T23:23:34.408Z,101036.34
2022-12-03T23:26:07.495Z,101038.22
2022-12-03T23:28:36.535Z,101038.97
2022-12-03T23:31:04.033Z,101038.22
2022-12-03T23:33:36.677Z,101037.38
2022-12-03T23:36:06.494Z,101033.06
2022-12-03T23:38:33.166Z,101032.00
2022-12-03T23:41:07.934Z,101033.81
2022-12-03T23:43:34.997Z,101035.69
2022-12-03T23:46:09.682Z,101026.84
2022-12-03T23:48:36.813Z,101029.59
2022-12-03T23:51:24.395Z,101027.59
2022-12-03T23:53:53.181Z,101019.28
2022-12-03T23:56:23.353Z,101026.97
2022-12-03T23:58:50.322Z,101033.06
